HSV weather

Alsavision Heliport
Miguel Hidalgo, Ciudad de México, Mexico

Public forecast

Using degrees Celsius for public forecast. Weather courtesy of forecast.io.

Closest aviation weather report (METAR) to Alsavision Heliport

Closest report is Licenciado Benito Juarez International Airport, 7.3 nm (13.6 km) E. Retrieved 2019/12/09 18:34 UTC (0 seconds ago):

MMMX 091834Z 13004KT 6SM SKC 23/M02 A3027 NOSIG RMK HZY

Closest aviation forecast (TAF) to Alsavision Heliport

Closest forecast is Licenciado Benito Juarez International Airport, 7.3 nm (13.6 km) E. Retrieved 2019/12/09 18:21 UTC (0 seconds ago):

TAF MMMX 091717Z 0918/1024 14005KT 6SM HZ SKC TX25/0922Z TN08/1013Z BECMG 0920/0921 16012KT FM100100 21006KT P6SM SKC BECMG 1005/1006 00000KT FM101200 00000KT 5SM HZ SKC FM101800 14005KT 6SM HZ SKC BECMG 1020/1021 16010KT